createdAt,value
2024-02-19T00:01:52.154Z,99.90
2024-02-19T00:05:54.375Z,99.90
2024-02-19T00:09:56.026Z,99.90
2024-02-19T00:13:58.243Z,99.90
2024-02-19T00:17:59.840Z,99.90
2024-02-19T00:22:01.358Z,99.90
2024-02-19T00:26:03.296Z,99.90
2024-02-19T00:30:05.884Z,99.90
2024-02-19T00:34:07.384Z,99.90
2024-02-19T00:38:10.188Z,99.90
2024-02-19T00:42:11.572Z,99.90
2024-02-19T00:46:12.998Z,99.90
2024-02-19T00:50:14.535Z,99.90
2024-02-19T00:54:16.164Z,99.90
2024-02-19T00:58:17.758Z,99.90
2024-02-19T01:02:19.379Z,99.90
2024-02-19T01:06:20.886Z,99.90
2024-02-19T01:10:22.351Z,99.90
2024-02-19T01:14:23.835Z,99.90
2024-02-19T01:18:25.393Z,99.90
2024-02-19T01:22:28.203Z,99.90
2024-02-19T01:26:30.720Z,99.90
2024-02-19T01:30:32.367Z,99.90
2024-02-19T01:34:33.922Z,99.90
2024-02-19T01:38:37.034Z,99.90
2024-02-19T01:42:38.699Z,99.90
2024-02-19T01:46:42.850Z,99.90
2024-02-19T01:50:47.152Z,99.90
2024-02-19T01:54:49.327Z,99.90
2024-02-19T01:58:51.849Z,99.90
2024-02-19T02:02:53.717Z,99.90
2024-02-19T02:06:55.380Z,99.90
2024-02-19T02:10:56.940Z,99.90
2024-02-19T02:14:58.435Z,99.90
2024-02-19T02:19:00.086Z,99.90
2024-02-19T02:23:03.160Z,99.90
2024-02-19T02:27:04.850Z,99.90
2024-02-19T02:31:07.461Z,99.90
2024-02-19T02:35:09.063Z,99.90
2024-02-19T02:39:10.485Z,99.90
2024-02-19T02:43:12.076Z,99.90
2024-02-19T02:47:13.421Z,99.90
2024-02-19T02:51:15.364Z,99.90
2024-02-19T02:55:17.010Z,99.90
2024-02-19T02:59:18.489Z,99.90
2024-02-19T03:03:19.832Z,99.90
2024-02-19T03:07:21.939Z,99.90
2024-02-19T03:11:23.616Z,99.90
2024-02-19T03:15:25.065Z,99.90
2024-02-19T03:19:27.506Z,99.90
2024-02-19T03:23:29.010Z,99.90
2024-02-19T03:27:30.294Z,99.90
2024-02-19T03:31:31.850Z,99.90
2024-02-19T03:35:33.236Z,99.90
2024-02-19T03:39:34.586Z,99.90
2024-02-19T03:43:35.968Z,99.90
2024-02-19T03:47:37.356Z,99.90
2024-02-19T03:51:38.874Z,99.90
2024-02-19T03:55:40.459Z,99.90
2024-02-19T03:59:42.143Z,99.90
2024-02-19T04:03:43.744Z,99.90
2024-02-19T04:07:45.232Z,99.90
2024-02-19T04:11:46.890Z,99.90
2024-02-19T04:15:48.213Z,99.90
2024-02-19T04:19:49.648Z,99.90
2024-02-19T04:23:51.169Z,99.90
2024-02-19T04:27:53.402Z,99.90
2024-02-19T04:31:54.756Z,99.90
2024-02-19T04:35:56.201Z,99.90
2024-02-19T04:39:57.508Z,99.90
2024-02-19T04:43:58.796Z,99.90
2024-02-19T04:48:00.494Z,99.90
2024-02-19T04:52:02.447Z,99.90
2024-02-19T04:56:04.807Z,99.90
2024-02-19T05:00:07.301Z,99.90
2024-02-19T05:04:08.714Z,99.90
2024-02-19T05:08:10.188Z,99.90
2024-02-19T05:12:11.513Z,99.90
2024-02-19T05:16:12.885Z,99.90
2024-02-19T05:20:14.326Z,99.90
2024-02-19T05:24:17.867Z,99.90
2024-02-19T05:28:19.298Z,99.90
2024-02-19T05:32:20.813Z,99.90
2024-02-19T05:36:22.198Z,99.90
2024-02-19T05:40:23.885Z,99.90
2024-02-19T05:44:25.515Z,99.90
2024-02-19T05:48:26.976Z,99.90
2024-02-19T05:52:28.986Z,99.90
2024-02-19T05:56:30.494Z,99.90
2024-02-19T06:00:31.822Z,99.90
2024-02-19T06:04:33.372Z,99.90
2024-02-19T06:08:34.871Z,99.90
2024-02-19T06:12:37.373Z,99.90
2024-02-19T06:16:38.768Z,99.90
2024-02-19T06:20:40.089Z,99.90
2024-02-19T06:24:41.483Z,99.90
2024-02-19T06:28:42.865Z,99.90
2024-02-19T06:32:44.383Z,99.90
2024-02-19T06:36:45.797Z,99.90
2024-02-19T06:40:47.465Z,99.90
2024-02-19T06:44:48.805Z,99.90
2024-02-19T06:48:50.679Z,99.90
2024-02-19T06:52:52.323Z,99.90
2024-02-19T06:56:53.619Z,99.90
2024-02-19T07:00:55.032Z,99.90
2024-02-19T07:04:56.783Z,99.90
2024-02-19T07:08:58.340Z,99.90
2024-02-19T07:13:00.160Z,99.90
2024-02-19T07:17:01.537Z,99.90
2024-02-19T07:21:02.961Z,99.90
2024-02-19T07:25:13.581Z,99.90
2024-02-19T07:29:08.255Z,99.90
2024-02-19T07:33:09.700Z,99.90
2024-02-19T07:37:11.215Z,99.90
2024-02-19T07:41:16.375Z,99.90
2024-02-19T07:45:17.897Z,99.90
2024-02-19T07:49:19.276Z,99.90
2024-02-19T07:53:20.636Z,99.90
2024-02-19T07:57:22.951Z,99.90
2024-02-19T08:01:24.446Z,99.90
2024-02-19T08:05:25.861Z,99.90
2024-02-19T08:09:27.345Z,99.90
2024-02-19T08:13:28.882Z,99.90
2024-02-19T08:17:31.063Z,99.90
2024-02-19T08:21:32.362Z,99.90
2024-02-19T08:25:34.402Z,99.90
2024-02-19T08:29:35.902Z,99.90
2024-02-19T08:33:37.374Z,99.90
2024-02-19T08:37:38.864Z,99.90
2024-02-19T08:41:40.298Z,99.90
2024-02-19T08:45:42.190Z,99.90
2024-02-19T08:49:44.088Z,99.90
2024-02-19T08:53:47.703Z,99.90
2024-02-19T08:57:48.913Z,99.90
2024-02-19T09:01:50.360Z,99.90
2024-02-19T09:05:51.858Z,99.90
2024-02-19T09:09:53.441Z,99.90
2024-02-19T09:13:54.945Z,99.90
2024-02-19T09:17:56.455Z,99.90
2024-02-19T09:21:57.905Z,99.90
2024-02-19T09:25:59.310Z,99.90
2024-02-19T09:30:00.794Z,99.90
2024-02-19T09:34:02.224Z,99.90
2024-02-19T09:38:03.912Z,99.90
2024-02-19T09:42:05.735Z,99.90
2024-02-19T09:46:10.925Z,99.90
2024-02-19T09:50:15.326Z,99.90
2024-02-19T09:54:16.849Z,99.90
2024-02-19T09:58:18.430Z,99.90
2024-02-19T10:02:20.190Z,99.90
2024-02-19T10:06:23.505Z,99.90
2024-02-19T10:10:25.606Z,99.90
2024-02-19T10:14:27.672Z,99.90
2024-02-19T10:18:29.128Z,99.90
2024-02-19T10:22:30.554Z,99.90
2024-02-19T10:26:32.009Z,99.90
2024-02-19T10:30:33.385Z,99.90
2024-02-19T10:34:35.220Z,99.90
2024-02-19T10:38:36.771Z,99.90
2024-02-19T10:42:39.107Z,98.30
2024-02-19T10:46:41.084Z,92.60
2024-02-19T10:50:42.521Z,98.00
2024-02-19T10:54:45.256Z,94.60
2024-02-19T10:58:54.781Z,97.90
2024-02-19T11:03:06.380Z,95.20
2024-02-19T11:07:08.977Z,89.00
2024-02-19T11:11:10.749Z,85.40
2024-02-19T11:15:16.754Z,90.90
2024-02-19T11:19:22.388Z,75.60
2024-02-19T11:23:27.253Z,77.30
2024-02-19T11:27:28.917Z,89.30
2024-02-19T11:31:30.512Z,84.10
2024-02-19T11:35:36.555Z,82.60
2024-02-19T11:39:38.823Z,71.90
2024-02-19T11:43:40.799Z,76.50
2024-02-19T11:47:43.123Z,83.20
2024-02-19T11:51:51.636Z,83.10
2024-02-19T11:55:59.926Z,84.20
2024-02-19T12:00:03.944Z,93.00
2024-02-19T12:04:07.233Z,95.20
2024-02-19T12:08:09.509Z,95.90
2024-02-19T12:12:10.911Z,99.90
2024-02-19T12:16:12.291Z,98.50
2024-02-19T12:20:14.862Z,99.90
2024-02-19T12:24:17.048Z,99.90
2024-02-19T12:28:19.616Z,99.90
2024-02-19T12:32:23.036Z,99.90
2024-02-19T12:36:25.116Z,99.90
2024-02-19T12:40:27.791Z,99.90
2024-02-19T12:44:30.514Z,99.40
2024-02-19T12:48:34.887Z,99.90
2024-02-19T12:52:37.052Z,99.30
2024-02-19T12:56:40.495Z,99.90
2024-02-19T13:00:43.156Z,99.90
2024-02-19T13:04:46.228Z,99.90
2024-02-19T13:08:50.540Z,99.90
2024-02-19T13:12:52.495Z,99.90
2024-02-19T13:17:02.559Z,99.90
2024-02-19T13:20:58.139Z,99.90
2024-02-19T13:25:00.015Z,99.90
2024-02-19T13:29:03.039Z,99.90
2024-02-19T13:33:06.822Z,99.90
2024-02-19T13:37:08.293Z,99.90
2024-02-19T13:41:09.885Z,99.90
2024-02-19T13:45:11.271Z,99.90
2024-02-19T13:49:12.816Z,99.90
2024-02-19T13:53:14.278Z,99.90
2024-02-19T13:57:16.134Z,99.90
2024-02-19T14:01:17.563Z,99.90
2024-02-19T14:05:19.443Z,99.90
2024-02-19T14:09:21.385Z,99.90
2024-02-19T14:13:23.724Z,99.90
2024-02-19T14:17:25.137Z,99.90
2024-02-19T14:21:26.689Z,99.90
2024-02-19T14:25:28.116Z,99.90
2024-02-19T14:29:31.599Z,99.90
2024-02-19T14:33:33.126Z,99.90
2024-02-19T14:37:41.568Z,99.90
2024-02-19T14:41:43.902Z,99.90
2024-02-19T14:45:45.905Z,99.90
2024-02-19T14:49:49.026Z,99.90
2024-02-19T14:53:53.051Z,99.90
2024-02-19T14:57:54.672Z,99.90
2024-02-19T15:01:57.146Z,99.90
2024-02-19T15:06:00.032Z,99.90
2024-02-19T15:10:02.723Z,99.90
2024-02-19T15:14:05.462Z,99.90
2024-02-19T15:18:08.605Z,99.90
2024-02-19T15:22:11.256Z,99.90
2024-02-19T15:26:15.107Z,99.90
2024-02-19T15:30:16.705Z,99.90
2024-02-19T15:34:18.634Z,99.90
2024-02-19T15:38:20.756Z,99.90
2024-02-19T15:42:23.341Z,99.90
2024-02-19T15:46:26.218Z,99.90
2024-02-19T15:50:28.378Z,99.90
2024-02-19T15:54:30.441Z,99.90
2024-02-19T15:58:35.727Z,99.90
2024-02-19T16:02:39.533Z,99.90
2024-02-19T16:06:42.083Z,99.90
2024-02-19T16:10:45.696Z,99.90
2024-02-19T16:14:47.426Z,99.90
2024-02-19T16:18:49.367Z,99.90
2024-02-19T16:22:53.332Z,99.90
2024-02-19T16:26:55.017Z,99.90
2024-02-19T16:30:58.286Z,99.90
2024-02-19T16:35:00.349Z,99.90
2024-02-19T16:39:02.655Z,99.90
2024-02-19T16:43:07.868Z,99.90
2024-02-19T16:47:09.915Z,99.90
2024-02-19T16:51:12.493Z,99.90
2024-02-19T16:55:15.536Z,99.90
2024-02-19T16:59:17.481Z,99.90
2024-02-19T17:03:19.874Z,99.90
2024-02-19T17:07:23.206Z,99.90
2024-02-19T17:11:25.511Z,99.90
2024-02-19T17:15:26.836Z,99.90
2024-02-19T17:19:28.275Z,99.90
2024-02-19T17:23:29.718Z,99.90
2024-02-19T17:27:31.133Z,99.90
2024-02-19T17:31:33.548Z,99.90
2024-02-19T17:35:36.807Z,99.90
2024-02-19T17:39:38.120Z,99.90
2024-02-19T17:43:39.838Z,99.90
2024-02-19T17:47:41.143Z,99.90
2024-02-19T17:51:42.472Z,99.90
2024-02-19T17:55:45.409Z,99.90
2024-02-19T17:59:46.811Z,99.90
2024-02-19T18:03:48.246Z,99.90
2024-02-19T18:07:49.697Z,99.90
2024-02-19T18:11:51.075Z,99.90
2024-02-19T18:15:52.594Z,99.90
2024-02-19T18:19:55.411Z,99.90
2024-02-19T18:23:59.287Z,99.90
2024-02-19T18:28:01.478Z,99.90
2024-02-19T18:32:03.156Z,99.90
2024-02-19T18:36:06.959Z,99.90
2024-02-19T18:40:09.088Z,99.90
2024-02-19T18:44:10.480Z,99.90
2024-02-19T18:48:11.813Z,99.90
2024-02-19T18:52:13.162Z,99.90
2024-02-19T18:56:15.210Z,99.90
2024-02-19T19:00:18.136Z,99.90
2024-02-19T19:04:19.560Z,99.90
2024-02-19T19:08:20.990Z,99.90
2024-02-19T19:12:22.372Z,99.90
2024-02-19T19:16:23.811Z,99.90
2024-02-19T19:20:25.703Z,99.90
2024-02-19T19:24:27.093Z,99.90
2024-02-19T19:28:28.516Z,99.90
2024-02-19T19:32:30.627Z,99.90
2024-02-19T19:36:32.071Z,99.90
2024-02-19T19:40:33.549Z,99.90
2024-02-19T19:44:34.904Z,99.90
2024-02-19T19:48:36.400Z,99.90
2024-02-19T19:52:37.901Z,99.90
2024-02-19T19:56:40.941Z,99.90
2024-02-19T20:00:43.528Z,99.90
2024-02-19T20:04:48.342Z,99.90
2024-02-19T20:08:50.688Z,99.90
2024-02-19T20:12:54.178Z,99.90
2024-02-19T20:16:55.469Z,99.90
2024-02-19T20:20:56.903Z,99.90
2024-02-19T20:24:58.373Z,99.90
2024-02-19T20:28:59.622Z,99.90
2024-02-19T20:33:02.952Z,99.90
2024-02-19T20:37:04.343Z,99.90
2024-02-19T20:41:05.636Z,99.90
2024-02-19T20:45:08.610Z,99.90
2024-02-19T20:49:10.027Z,99.90
2024-02-19T20:53:13.233Z,99.90
2024-02-19T20:57:14.545Z,99.90
2024-02-19T21:01:16.018Z,99.90
2024-02-19T21:05:19.583Z,99.90
2024-02-19T21:09:21.211Z,99.90
2024-02-19T21:13:22.873Z,99.90
2024-02-19T21:17:26.107Z,99.90
2024-02-19T21:21:34.440Z,99.90
2024-02-19T21:25:31.796Z,99.90
2024-02-19T21:29:33.143Z,99.90
2024-02-19T21:33:34.518Z,99.90
2024-02-19T21:37:35.911Z,99.90
2024-02-19T21:41:37.169Z,99.90
2024-02-19T21:45:38.728Z,99.90
2024-02-19T21:49:41.932Z,99.90
2024-02-19T21:53:43.205Z,99.90
2024-02-19T21:57:44.541Z,99.90
2024-02-19T22:01:45.915Z,99.90
2024-02-19T22:05:47.404Z,99.90
2024-02-19T22:09:51.089Z,99.90
2024-02-19T22:13:52.513Z,99.90
2024-02-19T22:17:53.896Z,99.90
2024-02-19T22:21:57.208Z,99.90
2024-02-19T22:25:58.651Z,99.90
2024-02-19T22:30:00.804Z,99.90
2024-02-19T22:34:02.236Z,99.90
2024-02-19T22:38:03.868Z,99.90
2024-02-19T22:42:05.533Z,99.90
2024-02-19T22:46:06.900Z,99.90
2024-02-19T22:50:08.620Z,99.90
2024-02-19T22:54:10.093Z,99.90
2024-02-19T22:58:15.476Z,99.90
2024-02-19T23:02:16.649Z,99.90
2024-02-19T23:06:18.160Z,99.90
2024-02-19T23:10:19.544Z,99.90
2024-02-19T23:14:20.986Z,99.90
2024-02-19T23:18:22.678Z,99.90
2024-02-19T23:22:24.286Z,99.90
2024-02-19T23:26:25.756Z,99.90
2024-02-19T23:30:29.005Z,99.90
2024-02-19T23:34:30.872Z,99.90
2024-02-19T23:38:34.167Z,99.90
2024-02-19T23:42:35.462Z,99.90
2024-02-19T23:46:36.920Z,99.90
2024-02-19T23:50:38.271Z,99.90
2024-02-19T23:54:40.440Z,99.90
2024-02-19T23:58:42.007Z,99.90
